Terminal Aerodrome Forecast
Issued by NWS Upton, NY

Home | Current Version | Previous Version | Text Only | Print | Product List | Glossary On
Versions: 1 2 3 4 5 6 7 8 9 10 11 12 13 14 15 16 17 18 19 20 21 22 23 24 25 26 27 28 29 30 31
000
FTUS41 KOKX 032320
TAFEWR
TAF
KEWR 032320Z 0400/0506 18005KT P6SM FEW060 BKN200
     FM040800 07005KT P6SM OVC100
     FM041300 04009KT P6SM SCT035 OVC080 PROB30 0413/0419 5SM -RA
      BKN035
     FM041900 02006KT P6SM BKN100
     FM050000 VRB03KT P6SM SKC=

USA.gov is the U.S. government's official web portal to all federal, state and local government web resources and services.